createdAt,value
2023-04-19T00:03:48.292Z,100302.84
2023-04-19T00:08:50.455Z,100307.41
2023-04-19T00:13:52.386Z,100306.72
2023-04-19T00:18:54.441Z,100299.75
2023-04-19T00:23:56.332Z,100306.78
2023-04-19T00:28:58.220Z,100301.66
2023-04-19T00:34:00.170Z,100305.94
2023-04-19T00:39:02.233Z,100312.97
2023-04-19T00:44:04.234Z,100309.28
2023-04-19T00:49:06.454Z,100309.19
2023-04-19T00:54:08.508Z,100320.56
2023-04-19T00:59:10.486Z,100313.69
2023-04-19T01:04:12.591Z,100314.81
2023-04-19T01:09:14.741Z,100315.75
2023-04-19T01:14:17.212Z,100323.78
2023-04-19T01:19:19.387Z,100315.03
2023-04-19T01:24:21.386Z,100319.47
2023-04-19T01:29:23.305Z,100304.72
2023-04-19T01:34:25.249Z,100317.81
2023-04-19T01:39:27.180Z,100306.34
2023-04-19T01:44:29.052Z,100316.03
2023-04-19T01:49:30.949Z,100308.19
2023-04-19T01:54:32.810Z,100306.34
2023-04-19T01:59:34.692Z,100309.06
2023-04-19T02:04:36.618Z,100312.56
2023-04-19T02:09:38.917Z,100311.56
2023-04-19T02:14:40.918Z,100309.78
2023-04-19T02:19:43.127Z,100305.44
2023-04-19T02:24:45.196Z,100316.09
2023-04-19T02:29:47.075Z,100317.78
2023-04-19T02:34:49.172Z,100311.69
2023-04-19T02:39:51.085Z,100319.50
2023-04-19T02:44:52.973Z,100308.91
2023-04-19T02:49:54.878Z,100321.09
2023-04-19T02:54:56.730Z,100328.19
2023-04-19T02:59:59.000Z,100319.53
2023-04-19T03:05:01.180Z,100321.34
2023-04-19T03:10:03.189Z,100329.25
2023-04-19T03:15:06.781Z,100328.25
2023-04-19T03:20:09.147Z,100330.03
2023-04-19T03:25:11.094Z,100329.25
2023-04-19T03:30:13.334Z,100334.38
2023-04-19T03:35:15.492Z,100330.97
2023-04-19T03:40:17.503Z,100342.25
2023-04-19T03:45:19.433Z,100332.59
2023-04-19T03:50:21.331Z,100341.47
2023-04-19T03:55:23.235Z,100349.31
2023-04-19T04:00:25.154Z,100336.88
2023-04-19T04:05:28.093Z,100341.97
2023-04-19T04:10:30.143Z,100340.88
2023-04-19T04:15:33.002Z,100336.63
2023-04-19T04:20:35.308Z,100338.13
2023-04-19T04:25:37.379Z,100346.66
2023-04-19T04:30:39.989Z,100336.56
2023-04-19T04:35:41.684Z,100342.31
2023-04-19T04:40:43.601Z,100337.19
2023-04-19T04:45:45.528Z,100339.22
2023-04-19T04:50:47.482Z,100332.44
2023-04-19T04:55:50.571Z,100337.97
2023-04-19T05:00:52.378Z,100351.00
2023-04-19T05:05:54.221Z,100354.16
2023-04-19T05:10:56.051Z,100355.81
2023-04-19T05:15:57.931Z,100346.34
2023-04-19T05:20:59.838Z,100359.34
2023-04-19T05:26:01.759Z,100354.22
2023-04-19T05:31:03.787Z,100337.22
2023-04-19T05:36:05.928Z,100334.22
2023-04-19T05:41:07.814Z,100359.94
2023-04-19T05:46:09.720Z,100340.53
2023-04-19T05:51:11.595Z,100346.56
2023-04-19T05:56:13.395Z,100345.00
2023-04-19T06:01:15.282Z,100338.91
2023-04-19T06:06:17.075Z,100344.81
2023-04-19T06:11:26.516Z,100354.38
2023-04-19T06:16:33.568Z,100365.81
2023-04-19T06:21:35.449Z,100369.59
2023-04-19T06:26:37.301Z,100367.19
2023-04-19T06:31:39.267Z,100381.78
2023-04-19T06:36:41.101Z,100384.22
2023-04-19T06:41:42.907Z,100365.09
2023-04-19T06:46:44.690Z,100379.50
2023-04-19T06:51:46.623Z,100368.56
2023-04-19T06:56:49.911Z,100378.19
2023-04-19T07:01:51.905Z,100380.81
2023-04-19T07:06:53.948Z,100373.41
2023-04-19T07:11:55.882Z,100379.03
2023-04-19T07:16:57.870Z,100381.50
2023-04-19T07:21:59.894Z,100365.19
2023-04-19T07:27:01.837Z,100358.25
2023-04-19T07:32:03.924Z,100350.22
2023-04-19T07:37:05.533Z,100344.19
2023-04-19T07:42:07.342Z,100347.69
2023-04-19T07:47:09.002Z,100373.53
2023-04-19T07:52:10.760Z,100362.59
2023-04-19T07:57:12.550Z,100376.84
2023-04-19T08:02:14.617Z,100397.44
2023-04-19T08:07:16.289Z,100394.09
2023-04-19T08:12:32.968Z,100402.34
2023-04-19T08:17:41.889Z,100394.44
2023-04-19T08:22:44.315Z,100384.69
2023-04-19T08:27:46.323Z,100380.06
2023-04-19T08:32:48.272Z,100385.38
2023-04-19T08:37:50.131Z,100381.22
2023-04-19T08:42:52.054Z,100385.38
2023-04-19T08:48:00.934Z,100372.81
2023-04-19T08:58:18.904Z,100370.19
2023-04-19T09:03:28.781Z,100380.38
2023-04-19T09:08:31.162Z,100390.06
2023-04-19T09:13:33.105Z,100367.84
2023-04-19T09:18:39.896Z,100352.75
2023-04-19T09:23:47.062Z,100359.13
2023-04-19T09:28:58.622Z,100341.28
2023-04-19T09:34:16.883Z,100347.09
2023-04-19T09:39:34.206Z,100341.38
2023-04-19T09:49:48.584Z,100348.22
2023-04-19T09:54:51.462Z,100330.44
2023-04-19T09:59:53.270Z,100333.78
2023-04-19T10:05:11.251Z,100328.97
2023-04-19T10:10:21.524Z,100330.78
2023-04-19T10:15:26.812Z,100321.22
2023-04-19T10:21:02.766Z,100328.47
2023-04-19T10:26:04.735Z,100320.56
2023-04-19T10:31:06.664Z,100312.91
2023-04-19T10:36:15.064Z,100316.47
2023-04-19T10:41:18.566Z,100318.00
2023-04-19T10:46:21.030Z,100315.50
2023-04-19T10:51:29.367Z,100312.41
2023-04-19T10:56:34.212Z,100311.78
2023-04-19T11:01:45.024Z,100287.63
2023-04-19T11:06:53.311Z,100297.34
2023-04-19T11:12:00.687Z,100305.00
2023-04-19T11:17:17.393Z,100284.75
2023-04-19T11:22:19.338Z,100283.00
2023-04-19T11:27:21.555Z,100296.50
2023-04-19T11:32:25.911Z,100279.16
2023-04-19T11:37:34.180Z,100279.38
2023-04-19T11:42:40.556Z,100262.41
2023-04-19T11:47:48.841Z,100258.09
2023-04-19T11:52:50.838Z,100258.84
2023-04-19T11:57:52.817Z,100259.06
2023-04-19T12:02:55.336Z,100250.88
2023-04-19T12:08:07.000Z,100263.59
2023-04-19T12:13:26.842Z,100254.25
2023-04-19T12:18:28.905Z,100244.91
2023-04-19T12:23:33.252Z,100244.06
2023-04-19T12:28:35.108Z,100250.16
2023-04-19T12:33:37.288Z,100232.97
2023-04-19T12:38:39.222Z,100237.13
2023-04-19T12:43:41.173Z,100230.97
2023-04-19T12:48:43.173Z,100227.66
2023-04-19T12:53:49.352Z,100219.72
2023-04-19T12:58:51.255Z,100214.56
2023-04-19T13:03:54.863Z,100217.06
2023-04-19T13:09:01.021Z,100220.22
2023-04-19T13:14:04.012Z,100208.88
2023-04-19T13:19:06.174Z,100204.63
2023-04-19T13:24:08.351Z,100211.47
2023-04-19T13:29:10.283Z,100214.63
2023-04-19T13:34:12.540Z,100205.41
2023-04-19T13:39:14.484Z,100204.91
2023-04-19T13:44:16.546Z,100200.47
2023-04-19T13:49:18.905Z,100193.59
2023-04-19T13:54:21.009Z,100204.66
2023-04-19T13:59:23.096Z,100197.47
2023-04-19T14:04:25.244Z,100201.09
2023-04-19T14:09:27.559Z,100198.44
2023-04-19T14:14:31.603Z,100197.00
2023-04-19T14:19:34.269Z,100189.81
2023-04-19T14:24:36.327Z,100191.31
2023-04-19T14:29:38.321Z,100196.22
2023-04-19T14:34:40.196Z,100193.00
2023-04-19T14:39:42.166Z,100204.41
2023-04-19T14:44:44.057Z,100202.75
2023-04-19T14:49:46.081Z,100196.84
2023-04-19T14:54:48.026Z,100189.44
2023-04-19T14:59:50.008Z,100187.78
2023-04-19T15:04:52.574Z,100189.44
2023-04-19T15:09:54.710Z,100194.56
2023-04-19T15:14:56.584Z,100194.78
2023-04-19T15:19:59.174Z,100184.81
2023-04-19T15:25:01.646Z,100182.97
2023-04-19T15:30:06.801Z,100187.94
2023-04-19T15:35:08.988Z,100185.63
2023-04-19T15:40:11.382Z,100192.16
2023-04-19T15:45:13.338Z,100191.31
2023-04-19T15:50:15.195Z,100190.66
2023-04-19T15:55:17.079Z,100199.84
2023-04-19T16:00:19.525Z,100187.03
2023-04-19T16:05:21.546Z,100184.56
2023-04-19T16:10:23.945Z,100192.09
2023-04-19T16:15:25.969Z,100194.16
2023-04-19T16:20:27.880Z,100195.50
2023-04-19T16:25:30.693Z,100185.16
2023-04-19T16:30:32.608Z,100199.66
2023-04-19T16:35:34.568Z,100203.63
2023-04-19T16:40:36.487Z,100205.75
2023-04-19T16:45:38.501Z,100200.66
2023-04-19T16:50:40.400Z,100209.75
2023-04-19T16:55:42.266Z,100212.72
2023-04-19T17:00:44.470Z,100220.13
2023-04-19T17:05:46.529Z,100215.97
2023-04-19T17:10:48.530Z,100220.72
2023-04-19T17:15:50.400Z,100228.16
2023-04-19T17:20:52.362Z,100220.50
2023-04-19T17:25:54.203Z,100222.59
2023-04-19T17:30:56.156Z,100220.13
2023-04-19T17:35:58.141Z,100231.28
2023-04-19T17:40:59.989Z,100224.31
2023-04-19T17:46:01.829Z,100227.25
2023-04-19T17:51:03.839Z,100225.84
2023-04-19T17:56:05.950Z,100228.78
2023-04-19T18:01:07.870Z,100217.56
2023-04-19T18:06:09.733Z,100225.72
2023-04-19T18:11:11.779Z,100223.28
2023-04-19T18:16:14.247Z,100223.34
2023-04-19T18:21:16.016Z,100224.47
2023-04-19T18:26:17.815Z,100227.19
2023-04-19T18:31:19.667Z,100230.94
2023-04-19T18:36:21.588Z,100225.78
2023-04-19T18:41:23.611Z,100234.88
2023-04-19T18:46:25.506Z,100224.47
2023-04-19T18:51:27.437Z,100224.66
2023-04-19T19:01:34.188Z,100221.53
2023-04-19T19:06:36.205Z,100228.75
2023-04-19T19:11:55.180Z,100216.53
2023-04-19T19:16:57.733Z,100219.38
2023-04-19T19:21:59.815Z,100220.41
2023-04-19T19:27:03.064Z,100223.19
2023-04-19T19:32:05.266Z,100218.13
2023-04-19T19:37:07.636Z,100220.00
2023-04-19T19:42:09.553Z,100212.41
2023-04-19T19:47:12.359Z,100216.13
2023-04-19T19:52:14.438Z,100216.22
2023-04-19T20:02:21.998Z,100214.66
2023-04-19T20:07:42.289Z,100221.91
2023-04-19T20:12:47.101Z,100204.47
2023-04-19T20:17:49.033Z,100209.97
2023-04-19T20:22:51.053Z,100203.09
2023-04-19T20:27:53.020Z,100209.47
2023-04-19T20:32:54.893Z,100209.69
2023-04-19T20:37:56.821Z,100203.59
2023-04-19T20:42:58.834Z,100206.28
2023-04-19T20:48:00.730Z,100204.72
2023-04-19T20:53:02.762Z,100207.47
2023-04-19T20:58:04.675Z,100199.69
2023-04-19T21:03:06.748Z,100204.19
2023-04-19T21:08:08.913Z,100200.06
2023-04-19T21:13:10.820Z,100194.00
2023-04-19T21:18:12.846Z,100197.81
2023-04-19T21:23:14.867Z,100193.59
2023-04-19T21:28:16.748Z,100191.16
2023-04-19T21:33:18.718Z,100196.56
2023-04-19T21:38:20.687Z,100193.22
2023-04-19T21:43:22.542Z,100187.28
2023-04-19T21:48:24.569Z,100179.50
2023-04-19T21:53:26.525Z,100180.50
2023-04-19T21:58:28.486Z,100182.28
2023-04-19T22:03:30.496Z,100195.56
2023-04-19T22:08:33.102Z,100186.06
2023-04-19T22:13:34.945Z,100191.63
2023-04-19T22:18:36.754Z,100172.38
2023-04-19T22:23:38.712Z,100178.50
2023-04-19T22:28:40.703Z,100170.56
2023-04-19T22:33:42.593Z,100169.66
2023-04-19T22:38:44.532Z,100165.25
2023-04-19T22:43:46.523Z,100160.00
2023-04-19T22:48:48.499Z,100160.91
2023-04-19T22:53:50.561Z,100159.88
2023-04-19T22:58:52.638Z,100147.56
2023-04-19T23:03:54.494Z,100142.38
2023-04-19T23:08:56.448Z,100133.56
2023-04-19T23:13:58.419Z,100141.38
2023-04-19T23:19:00.531Z,100133.66
2023-04-19T23:24:02.378Z,100131.25
2023-04-19T23:29:04.303Z,100136.63
2023-04-19T23:34:06.317Z,100131.47
2023-04-19T23:39:08.184Z,100129.84
2023-04-19T23:44:10.093Z,100126.50
2023-04-19T23:49:11.935Z,100122.34
2023-04-19T23:54:13.912Z,100124.28
2023-04-19T23:59:16.317Z,100118.19
